Bleiblerville, TX (78931)

3:11 AM CDT on October 22, 2014 (GMT -0500)
Cat Spring Texas | Change Station
CLOSE
Current Station
Personal Weather Station
Location: Cat Spring, TX
Elevation: 315 ft
Nearby Weather Stations

Elev 315 ft 29.89 °N, 96.38 °W | Updated 6 minutes ago

Partly Cloudy
Partly Cloudy
58.7 °F
Feels Like 58.7 °F
N
0.0
Wind Variable Wind from ESE
Gusts 0.0 mph

Today
High -- | Low -- °F
--% Chance of Precip.
Yesterday
High -- | Low -- °F
Precip. -- in
7:32 AM 6:47 PM
Waning Crescent, 3% visible
Pressure 30.05 in
Visibility 10.0 miles
Clouds Clear
Dew Point 57 °F
Humidity 94%
Rainfall 0.00 in
Snow Depth Not available.
UV 0 out of 12
Pollen 6.30 out of 12
Air Quality Not available.
Flu Activity Sporadic
METAR K11R 220755Z AUTO 00000KT 10SM CLR 17/15 A3005 RMK AO2 T01680150

More Conditions Fewer Conditions

Pressure 30.05 in
Visibility 10.0 miles
Clouds Clear
Dew Point 57 °F
Humidity 94%
Rainfall 0.00 in
Snow Depth Not available.
UV 0 out of 12
Pollen 6.30 out of 12
Air Quality Not available.
Flu Activity Sporadic
METAR K11R 220755Z AUTO 00000KT 10SM CLR 17/15 A3005 RMK AO2 T01680150

More Conditions Fewer Conditions

10-Day Weather Forecast

Almanac

Astronomy

Oct. 22, 2014 Rise Set
Actual Time 7:32 AM CDT 6:47 PM CDT
Civil Twilight 7:07 AM CDT 7:11 PM CDT
Nautical Twilight 6:39 AM CDT 7:39 PM CDT
Astronomical Twilight 6:12 AM CDT 8:07 PM CDT
Moon 6:19 AM CDT 6:11 PM CDT
Length of Visible Light 12h 03m
Length of Day
11h 15m
Tomorrow will be 1m 40s shorter.
Waning Crescent, 3% of the Moon is Illuminated
Today
Waning Crescent
Oct 23
New
Oct 30
First Quarter
Nov 6
Full
Nov 14
Last Quarter

Today's Extremes

State Highs State Lows

Community

WunderPhotos

Upload Photos

1,763,889 photos uploaded!

Nearby

Snow Depth

Station Depth Elevation
No new snow has been reported.

Earthquake Activity

City Distance Mag. Time & Date
No recent earthquake activity has been reported nearby.
Minimum magnitude displayed is 2.5.

Coastal Water Temperatures

Place Temperature
No Stations Reporting

Nearby Weather Stations